Aérodrome :
LOGIN :

S'inscrire | Disclaimer

   EN    FR    IT 

 










Légende :    VFR   VFR Marginal   IFR   IFR Intensif   IFR Très Intensif
Visi : 
Plafond : 
>= 8 km
>= 3000ft
5 à 8 km
1000 à 3000 ft
1500m à 5 km
500 à 1000 ft
800 à 1500m
200 à 500 ft
< 800m
< 200 ft
Symboles :   Orages  Brouillard  Fortes neiges  Fortes précipitations  Vent > 20 kt
SIGMETs :   Divers  Orages  Givrage  Turbulence  Onde Orograph.  Cendres Volcan.







- Altitude de l'aérodrome : 755 ft
- Code IATA : RWN


UKLR - Rivne

DERNIER METAR :
  • 221500Z 29003MPS 9999 SCT030 08/00 Q1022 R29/090070 NOSIG

METARs EXPIRÉS :
  • 221430Z 30002MPS 9999 SCT030 09/00 Q1022 R29/090070 NOSIG
  • 221400Z 31004MPS 9999 SCT030 10/00 Q1022 R29/090070 NOSIG
  • 221330Z 30003MPS 270V330 9999 SCT030 10/01 Q1023 R29/090070 NOSIG
  • 221300Z 31004MPS 9999 SCT030 10/01 Q1023 R29/090070 NOSIG

TAF AMD TAF UKLR
Valide du 22 à 11h jusqu'au 22 à 21h UTC


221156Z 2211/2221 30005MPS 9999 BKN020
TEMPO 2215/2221 2100 BR BKN007 SCT013CB
Pas de NOTAMs connus pour ce terrain.



MET'MAP, la Météo Aéronautique d'un coup d'oeil ! - Copyright ORBIFLY Décembre 2007 - Disclaimer

ORBIFLY MET'MAP TEAM :

Programmation & Développement : Alexandra Zaïnal
Conception & Développement : Baudouin d'Aumeries
Co-Programmation & Développement : Marc-Olivier Méhu
Soutien technique & logistique : Manuel Goepfert

Contact : metmap@orbifly.com




SOURCES & CREDITS :

   NOAA